createdAt,value
2022-08-11T00:00:09.050Z,3.70
2022-08-11T00:05:16.872Z,4.50
2022-08-11T00:10:22.737Z,4.05
2022-08-11T00:15:26.641Z,4.18
2022-08-11T00:20:32.942Z,4.82
2022-08-11T00:25:44.771Z,3.67
2022-08-11T00:30:46.533Z,3.65
2022-08-11T00:35:57.287Z,5.35
2022-08-11T00:41:29.083Z,4.55
2022-08-11T00:46:53.457Z,6.28
2022-08-11T00:52:21.580Z,4.68
2022-08-11T00:57:54.582Z,4.45
2022-08-11T01:03:17.832Z,4.00
2022-08-11T01:08:38.174Z,5.05
2022-08-11T01:13:48.992Z,5.82
2022-08-11T01:19:31.866Z,3.72
2022-08-11T01:24:51.819Z,6.40
2022-08-11T01:30:07.797Z,4.00
2022-08-11T01:35:43.296Z,4.45
2022-08-11T01:41:47.767Z,4.85
2022-08-11T01:47:31.239Z,5.05
2022-08-11T01:52:49.119Z,5.13
2022-08-11T01:57:54.779Z,4.70
2022-08-11T02:03:24.621Z,4.25
2022-08-11T02:08:41.967Z,5.25
2022-08-11T02:13:54.330Z,6.70
2022-08-11T02:19:35.835Z,7.10
2022-08-11T02:25:04.295Z,5.88
2022-08-11T02:30:11.033Z,5.20
2022-08-11T02:35:36.753Z,7.88
2022-08-11T02:41:00.498Z,7.43
2022-08-11T02:46:26.822Z,7.00
2022-08-11T02:52:03.600Z,5.57
2022-08-11T02:57:27.963Z,5.63
2022-08-11T03:02:32.291Z,7.18
2022-08-11T03:08:06.335Z,5.25
2022-08-11T03:13:34.676Z,6.22
2022-08-11T03:18:57.950Z,6.18
2022-08-11T03:24:09.327Z,6.65
2022-08-11T03:29:28.322Z,6.70
2022-08-11T03:34:35.444Z,6.38
2022-08-11T03:39:59.776Z,6.40
2022-08-11T03:45:16.886Z,6.75
2022-08-11T03:50:55.388Z,7.60
2022-08-11T03:56:26.758Z,6.25
2022-08-11T04:02:06.447Z,7.15
2022-08-11T04:07:43.397Z,6.55
2022-08-11T04:13:13.059Z,10.73
2022-08-11T04:18:45.751Z,7.55
2022-08-11T04:24:37.932Z,7.43
2022-08-11T04:30:02.181Z,6.50
2022-08-11T04:35:34.593Z,6.82
2022-08-11T04:41:14.339Z,8.85
2022-08-11T04:46:25.835Z,11.40
2022-08-11T04:52:06.985Z,7.93
2022-08-11T04:58:03.507Z,10.38
2022-08-11T05:03:26.346Z,8.52
2022-08-11T05:08:48.998Z,8.85
2022-08-11T05:14:42.910Z,8.32
2022-08-11T05:20:06.941Z,10.25
2022-08-11T05:26:44.377Z,8.52
2022-08-11T05:31:39.327Z,11.23
2022-08-11T05:37:26.662Z,8.88
2022-08-11T05:42:50.164Z,7.80
2022-08-11T05:48:11.428Z,8.25
2022-08-11T05:53:45.662Z,8.52
2022-08-11T05:58:51.708Z,15.20
2022-08-11T06:04:14.604Z,8.93
2022-08-11T06:09:20.493Z,6.82
2022-08-11T06:15:34.669Z,7.72
2022-08-11T06:20:50.194Z,9.02
2022-08-11T06:25:56.381Z,12.13
2022-08-11T06:30:59.362Z,8.07
2022-08-11T06:36:27.243Z,10.35
2022-08-11T06:41:45.903Z,8.00
2022-08-11T06:46:51.337Z,10.43
2022-08-11T06:51:54.626Z,6.00
2022-08-11T06:57:29.906Z,8.55
2022-08-11T07:02:43.239Z,10.18
2022-08-11T07:08:34.778Z,10.63
2022-08-11T07:13:58.976Z,7.28
2022-08-11T07:19:25.077Z,10.27
2022-08-11T07:24:58.472Z,15.48
2022-08-11T07:30:08.298Z,6.45
2022-08-11T07:35:13.364Z,6.53
2022-08-11T07:40:19.659Z,7.43
2022-08-11T07:45:42.728Z,8.02
2022-08-11T07:51:03.767Z,7.70
2022-08-11T07:56:06.293Z,6.35
2022-08-11T08:01:27.320Z,6.47
2022-08-11T08:06:50.467Z,6.47
2022-08-11T08:12:11.345Z,5.07
2022-08-11T08:17:32.066Z,5.18
2022-08-11T08:22:37.870Z,8.05
2022-08-11T08:27:43.550Z,6.10
2022-08-11T08:32:45.382Z,5.72
2022-08-11T08:37:50.289Z,6.30
2022-08-11T08:43:18.477Z,5.07
2022-08-11T08:48:25.978Z,4.72
2022-08-11T08:53:33.395Z,5.68
2022-08-11T08:58:37.618Z,3.67
2022-08-11T09:04:06.843Z,3.03
2022-08-11T09:09:02.786Z,3.22
2022-08-11T09:14:09.284Z,6.45
2022-08-11T09:19:19.655Z,7.43
2022-08-11T09:24:40.056Z,4.63
2022-08-11T09:29:41.853Z,4.78
2022-08-11T09:34:44.281Z,6.80
2022-08-11T09:40:04.869Z,4.25
2022-08-11T09:45:08.184Z,4.47
2022-08-11T09:50:11.027Z,4.75
2022-08-11T09:55:15.290Z,4.53
2022-08-11T10:00:17.263Z,4.50
2022-08-11T10:05:39.024Z,4.85
2022-08-11T10:10:41.517Z,4.95
2022-08-11T10:15:59.988Z,4.35
2022-08-11T10:21:34.576Z,4.22
2022-08-11T10:26:55.129Z,3.30
2022-08-11T10:32:16.353Z,5.22
2022-08-11T10:37:22.372Z,4.40
2022-08-11T10:42:57.062Z,4.97
2022-08-11T10:48:00.042Z,7.40
2022-08-11T10:53:21.681Z,3.53
2022-08-11T10:58:42.889Z,4.82
2022-08-11T11:03:45.328Z,3.55
2022-08-11T11:08:57.632Z,3.65
2022-08-11T11:14:22.282Z,3.08
2022-08-11T11:19:29.948Z,4.75
2022-08-11T11:24:54.923Z,3.53
2022-08-11T11:30:12.341Z,7.60
2022-08-11T11:35:26.636Z,4.13
2022-08-11T11:40:31.443Z,4.28
2022-08-11T11:45:33.937Z,4.43
2022-08-11T11:50:37.732Z,3.88
2022-08-11T11:55:40.407Z,2.83
2022-08-11T12:01:03.489Z,2.65
2022-08-11T12:06:06.970Z,5.03
2022-08-11T12:11:30.229Z,2.92
2022-08-11T12:16:36.693Z,2.67
2022-08-11T12:22:00.990Z,3.15
2022-08-11T12:27:25.163Z,5.60
2022-08-11T12:32:30.219Z,4.47
2022-08-11T12:37:44.569Z,5.47
2022-08-11T12:43:08.278Z,6.10
2022-08-11T12:48:59.431Z,5.88
2022-08-11T12:54:31.059Z,2.90
2022-08-11T12:59:52.974Z,3.58
2022-08-11T13:04:59.170Z,3.58
2022-08-11T13:10:06.258Z,3.47
2022-08-11T13:15:16.956Z,3.78
2022-08-11T13:20:20.377Z,4.47
2022-08-11T13:25:24.936Z,4.13
2022-08-11T13:30:48.868Z,4.88
2022-08-11T13:35:53.858Z,4.95
2022-08-11T13:40:56.554Z,4.35
2022-08-11T13:46:18.510Z,4.47
2022-08-11T13:51:35.746Z,5.97
2022-08-11T13:56:39.829Z,4.30
2022-08-11T14:02:19.442Z,3.30
2022-08-11T14:07:11.544Z,4.25
2022-08-11T14:12:41.769Z,3.05
2022-08-11T14:17:47.972Z,3.28
2022-08-11T14:22:52.501Z,2.53
2022-08-11T14:28:32.942Z,6.53
2022-08-11T14:33:20.437Z,3.53
2022-08-11T14:38:22.999Z,4.15
2022-08-11T14:44:13.166Z,3.70
2022-08-11T14:49:07.045Z,4.35
2022-08-11T14:54:32.506Z,3.97
2022-08-11T14:59:35.122Z,4.28
2022-08-11T15:04:38.765Z,2.50
2022-08-11T15:10:02.701Z,3.70
2022-08-11T15:15:29.339Z,5.20
2022-08-11T15:20:53.856Z,2.97
2022-08-11T15:26:44.682Z,5.63
2022-08-11T15:32:26.053Z,2.85
2022-08-11T15:37:31.582Z,4.40
2022-08-11T15:42:59.044Z,3.17
2022-08-11T15:48:06.579Z,4.50
2022-08-11T15:53:34.689Z,3.72
2022-08-11T15:59:41.217Z,3.08
2022-08-11T16:04:26.744Z,4.32
2022-08-11T16:09:47.065Z,2.75
2022-08-11T16:15:12.779Z,4.32
2022-08-11T16:20:17.252Z,3.35
2022-08-11T16:27:02.079Z,3.90
2022-08-11T16:30:46.604Z,8.32
2022-08-11T16:36:07.660Z,6.40
2022-08-11T16:41:13.987Z,2.40
2022-08-11T16:46:37.669Z,3.85
2022-08-11T16:51:39.389Z,2.17
2022-08-11T16:56:46.096Z,2.75
2022-08-11T17:02:01.969Z,2.35
2022-08-11T17:07:42.527Z,3.55
2022-08-11T17:13:08.533Z,3.17
2022-08-11T17:18:34.603Z,2.75
2022-08-11T17:23:52.782Z,2.67
2022-08-11T17:28:59.355Z,2.08
2022-08-11T17:34:21.817Z,4.43
2022-08-11T17:39:29.107Z,3.92
2022-08-11T17:44:51.507Z,1.95
2022-08-11T17:49:54.521Z,2.38
2022-08-11T17:55:16.864Z,2.47
2022-08-11T18:00:38.953Z,3.53
2022-08-11T18:05:44.372Z,3.90
2022-08-11T18:11:06.724Z,3.58
2022-08-11T18:16:28.510Z,5.57
2022-08-11T18:22:01.875Z,2.88
2022-08-11T18:27:33.536Z,3.40
2022-08-11T18:33:22.587Z,2.42
2022-08-11T18:38:41.758Z,3.65
2022-08-11T18:44:07.351Z,4.85
2022-08-11T18:50:04.077Z,6.35
2022-08-11T18:55:24.098Z,4.55
2022-08-11T19:00:46.563Z,2.35
2022-08-11T19:06:39.200Z,4.50
2022-08-11T19:11:50.227Z,2.47
2022-08-11T19:17:12.693Z,2.72
2022-08-11T19:22:35.379Z,1.90
2022-08-11T19:27:58.035Z,3.13
2022-08-11T19:33:22.847Z,3.35
2022-08-11T19:38:59.957Z,4.00
2022-08-11T19:44:21.559Z,3.50
2022-08-11T19:49:42.655Z,6.35
2022-08-11T19:55:04.069Z,3.65
2022-08-11T20:00:30.023Z,3.42
2022-08-11T20:05:55.687Z,4.25
2022-08-11T20:11:21.014Z,5.95
2022-08-11T20:16:43.461Z,3.90
2022-08-11T20:22:08.323Z,3.17
2022-08-11T20:27:31.611Z,4.07
2022-08-11T20:32:53.136Z,3.22
2022-08-11T20:38:14.845Z,9.27
2022-08-11T20:44:06.147Z,5.53
2022-08-11T20:49:21.132Z,2.50
2022-08-11T20:54:45.974Z,2.53
2022-08-11T21:00:09.834Z,2.33
2022-08-11T21:06:09.125Z,3.25
2022-08-11T21:11:12.577Z,3.53
2022-08-11T21:16:38.441Z,2.63
2022-08-11T21:22:01.141Z,3.10
2022-08-11T21:27:27.675Z,2.40
2022-08-11T21:32:49.690Z,3.47
2022-08-11T21:38:11.119Z,4.07
2022-08-11T21:43:33.714Z,3.50
2022-08-11T21:48:56.208Z,5.70
2022-08-11T21:54:19.102Z,2.55
2022-08-11T21:59:52.706Z,3.13
2022-08-11T22:05:13.627Z,3.28
2022-08-11T22:10:41.921Z,4.03
2022-08-11T22:16:03.596Z,3.78
2022-08-11T22:22:03.549Z,4.75
2022-08-11T22:27:05.555Z,3.85
2022-08-11T22:32:28.995Z,3.95
2022-08-11T22:37:50.396Z,3.47
2022-08-11T22:43:10.670Z,4.78
2022-08-11T22:48:33.359Z,4.43
2022-08-11T22:53:57.574Z,4.28
2022-08-11T22:59:18.933Z,3.53
2022-08-11T23:04:39.942Z,3.08
2022-08-11T23:10:00.607Z,3.05
2022-08-11T23:15:21.231Z,2.72
2022-08-11T23:20:54.164Z,3.55
2022-08-11T23:26:16.488Z,2.50
2022-08-11T23:31:50.323Z,5.32
2022-08-11T23:37:13.025Z,3.65
2022-08-11T23:42:34.596Z,5.07
2022-08-11T23:47:58.164Z,4.22
2022-08-11T23:53:19.106Z,3.47
2022-08-11T23:58:39.708Z,4.88
